Time;durP1;ratioP1;P1;durP2;ratioP2;P2;SDS_P1;SDS_P2;PMS_P1;PMS_P2;Temp;Humidity;BMP_temperature;BMP_pressure;BME280_temperature;BME280_humidity;BME280_pressure;Samples;Min_cycle;Max_cycle;Signal;HPM_P1;HPM_P2
2022/08/31 00:04:09;;;;;;;9.97;8.97;;;22.80;99.90;;;;;;5014837;28;20832;-81
2022/08/31 00:06:35;;;;;;;11.13;7.77;;;22.70;99.90;;;;;;5012312;28;20423;-81
2022/08/31 00:09:03;;;;;;;7.00;6.30;;;22.70;99.90;;;;;;5015386;28;20492;-81
2022/08/31 00:11:30;;;;;;;7.97;6.10;;;22.50;99.90;;;;;;5013876;28;20432;-80
2022/08/31 00:13:58;;;;;;;8.53;6.77;;;22.50;99.90;;;;;;5013768;28;20459;-80
2022/08/31 00:16:25;;;;;;;9.40;6.40;;;22.40;99.90;;;;;;5022881;28;20438;-80
2022/08/31 00:18:52;;;;;;;7.07;5.80;;;22.40;99.90;;;;;;5023037;28;20435;-80
2022/08/31 00:21:19;;;;;;;6.20;5.37;;;22.20;99.90;;;;;;5016313;28;21014;-80
2022/08/31 00:23:45;;;;;;;8.03;5.60;;;22.10;99.90;;;;;;5016462;28;20462;-80
2022/08/31 00:26:11;;;;;;;9.87;6.90;;;22.00;99.90;;;;;;5014964;28;20439;-79
2022/08/31 00:28:36;;;;;;;7.40;6.70;;;22.00;99.90;;;;;;5015617;28;20185;-81
2022/08/31 00:31:02;;;;;;;7.00;5.73;;;22.10;99.90;;;;;;4997641;28;20199;-80
2022/08/31 00:33:27;;;;;;;7.13;6.43;;;21.90;99.90;;;;;;5025409;28;22360;-80
2022/08/31 00:35:53;;;;;;;8.40;7.43;;;21.90;99.90;;;;;;5026430;28;20210;-80
2022/08/31 00:38:19;;;;;;;7.10;6.40;;;21.90;99.90;;;;;;5013803;28;20563;-81
2022/08/31 00:40:46;;;;;;;9.77;6.30;;;21.80;99.90;;;;;;5014181;28;20693;-80
2022/08/31 00:43:31;;;;;;;12.97;7.20;;;21.70;99.90;;;;;;5014068;28;20204;-80
2022/08/31 00:45:57;;;;;;;8.00;6.43;;;21.70;99.90;;;;;;5014006;28;20438;-81
2022/08/31 00:48:23;;;;;;;7.13;6.40;;;21.70;99.90;;;;;;5016159;28;20439;-81
2022/08/31 00:50:48;;;;;;;8.10;6.50;;;21.50;99.90;;;;;;5020005;28;20199;-81
2022/08/31 00:53:14;;;;;;;11.07;7.07;;;21.50;99.90;;;;;;5016621;28;20220;-81
2022/08/31 00:55:39;;;;;;;10.20;7.37;;;21.60;99.90;;;;;;5014124;28;20195;-81
2022/08/31 00:58:11;;;;;;;8.73;7.10;;;21.60;99.90;;;;;;5016623;28;20219;-80
2022/08/31 01:00:39;;;;;;;10.47;7.00;;;21.70;99.90;;;;;;5013636;28;20208;-80
2022/08/31 01:03:06;;;;;;;9.80;6.47;;;21.80;99.90;;;;;;5017236;28;20540;-80
2022/08/31 01:05:33;;;;;;;8.00;7.20;;;21.70;99.90;;;;;;5020346;28;20445;-80
2022/08/31 01:08:01;;;;;;;10.47;7.13;;;21.60;99.90;;;;;;5015751;28;20442;-80
2022/08/31 01:10:31;;;;;;;8.27;6.80;;;21.60;99.90;;;;;;5017870;28;20435;-80
2022/08/31 01:12:58;;;;;;;7.40;6.70;;;21.60;99.90;;;;;;5013680;28;20510;-80
2022/08/31 01:15:25;;;;;;;7.10;6.40;;;21.60;99.90;;;;;;5015006;28;20470;-81
2022/08/31 01:17:53;;;;;;;6.40;5.80;;;21.60;99.90;;;;;;5016954;28;20969;-81
2022/08/31 01:20:45;;;;;;;8.20;6.50;;;21.50;99.90;;;;;;5017570;28;20557;-81
2022/08/31 01:23:19;;;;;;;7.17;6.10;;;21.50;99.90;;;;;;5018161;28;20975;-81
2022/08/31 01:25:47;;;;;;;8.07;6.30;;;21.60;99.90;;;;;;5016175;28;20439;-81
2022/08/31 01:28:13;;;;;;;7.77;6.73;;;21.60;99.90;;;;;;5000972;28;20525;-82
2022/08/31 01:30:41;;;;;;;7.93;6.37;;;21.70;99.90;;;;;;5014900;28;20439;-82
2022/08/31 01:33:08;;;;;;;7.73;6.73;;;21.70;99.90;;;;;;5016812;28;20496;-83
2022/08/31 01:35:34;;;;;;;7.00;6.03;;;21.70;99.90;;;;;;5015178;28;22438;-82
2022/08/31 01:38:01;;;;;;;6.70;6.00;;;21.70;99.90;;;;;;5019085;28;20487;-81
2022/08/31 01:40:45;;;;;;;7.70;6.33;;;21.70;99.90;;;;;;5017248;28;20473;-81
2022/08/31 01:43:10;;;;;;;6.30;5.70;;;21.80;99.90;;;;;;5015316;28;20459;-82
2022/08/31 01:45:36;;;;;;;6.13;5.53;;;21.90;99.90;;;;;;5017255;28;20505;-82
2022/08/31 01:48:02;;;;;;;6.20;5.60;;;21.90;99.90;;;;;;5016726;28;20199;-82
2022/08/31 01:50:27;;;;;;;6.00;5.43;;;22.00;99.90;;;;;;5014465;28;20207;-81
2022/08/31 01:52:53;;;;;;;5.70;5.20;;;21.80;99.90;;;;;;5013783;28;20208;-81
2022/08/31 01:55:19;;;;;;;6.77;5.87;;;21.80;99.90;;;;;;5017230;28;20200;-81
2022/08/31 01:57:44;;;;;;;7.50;6.53;;;21.80;99.90;;;;;;5016441;28;20197;-81
2022/08/31 02:00:11;;;;;;;6.20;5.60;;;21.80;99.90;;;;;;5012059;28;20220;-81
2022/08/31 02:02:37;;;;;;;6.43;5.40;;;21.90;99.90;;;;;;5014764;28;20546;-81
2022/08/31 02:05:03;;;;;;;6.30;5.57;;;21.80;99.90;;;;;;5016641;28;20473;-79
2022/08/31 02:07:29;;;;;;;6.10;5.50;;;21.70;99.90;;;;;;5021100;28;20242;-79
2022/08/31 02:09:54;;;;;;;6.27;5.57;;;21.70;99.90;;;;;;5020854;28;20533;-78
2022/08/31 02:12:20;;;;;;;7.23;5.10;;;21.80;99.90;;;;;;5019012;28;20314;-80
2022/08/31 02:14:46;;;;;;;6.17;5.53;;;21.70;99.90;;;;;;5016983;28;20208;-80
2022/08/31 02:17:11;;;;;;;6.63;6.00;;;21.80;99.90;;;;;;5017376;28;20188;-80
2022/08/31 02:19:37;;;;;;;5.60;5.10;;;21.90;99.90;;;;;;5018482;28;20288;-80
2022/08/31 02:22:02;;;;;;;5.90;5.30;;;22.00;99.90;;;;;;5019268;28;20188;-80
2022/08/31 02:24:28;;;;;;;4.80;4.30;;;22.00;99.90;;;;;;5016070;28;20238;-80
2022/08/31 02:26:53;;;;;;;5.20;4.70;;;22.00;99.90;;;;;;4999745;28;20574;-80
2022/08/31 02:29:19;;;;;;;6.20;5.10;;;21.90;99.90;;;;;;5015248;28;20193;-80
2022/08/31 02:31:45;;;;;;;5.90;5.30;;;21.90;99.90;;;;;;5014202;28;20196;-80
2022/08/31 02:34:10;;;;;;;6.33;5.73;;;21.90;99.90;;;;;;5014773;28;20352;-81
2022/08/31 02:36:36;;;;;;;6.77;5.43;;;21.80;99.90;;;;;;5014139;28;20230;-81
2022/08/31 02:39:03;;;;;;;6.13;5.53;;;21.80;99.90;;;;;;5015622;28;20685;-80
2022/08/31 02:41:28;;;;;;;5.60;5.10;;;21.90;99.90;;;;;;5014028;28;20714;-80
2022/08/31 02:43:54;;;;;;;5.30;4.57;;;22.00;99.90;;;;;;5013970;28;20462;-80
2022/08/31 02:46:19;;;;;;;5.77;5.27;;;22.10;99.90;;;;;;5011992;28;20212;-80
2022/08/31 02:48:45;;;;;;;6.47;5.50;;;22.10;99.90;;;;;;5016603;28;20569;-80
2022/08/31 02:51:11;;;;;;;6.33;5.73;;;22.20;99.90;;;;;;5015307;28;20279;-80
2022/08/31 02:53:37;;;;;;;5.40;4.90;;;22.20;99.90;;;;;;5019430;28;20208;-81
2022/08/31 02:56:03;;;;;;;5.70;5.20;;;22.20;99.90;;;;;;5016895;28;20451;-80
2022/08/31 02:58:29;;;;;;;6.23;5.63;;;22.30;99.90;;;;;;5015237;28;20435;-81
2022/08/31 03:00:55;;;;;;;6.30;5.70;;;22.30;99.90;;;;;;5015103;28;20481;-81
2022/08/31 03:03:21;;;;;;;5.90;5.10;;;22.30;99.90;;;;;;5017669;28;20227;-81
2022/08/31 03:05:48;;;;;;;6.37;5.77;;;22.40;99.90;;;;;;5020452;28;20177;-81
2022/08/31 03:08:14;;;;;;;6.77;6.17;;;22.40;99.90;;;;;;5018564;28;20504;-81
2022/08/31 03:10:39;;;;;;;6.23;5.63;;;22.40;99.90;;;;;;5018441;28;20455;-81
2022/08/31 03:13:05;;;;;;;6.40;5.80;;;22.40;99.90;;;;;;5014582;28;20603;-81
2022/08/31 03:15:31;;;;;;;7.23;6.20;;;22.40;99.90;;;;;;5017836;28;20313;-81
2022/08/31 03:17:57;;;;;;;6.70;6.03;;;22.30;99.90;;;;;;5018328;28;20188;-81
2022/08/31 03:20:25;;;;;;;8.53;7.03;;;22.40;99.90;;;;;;5016848;28;20474;-81
2022/08/31 03:22:51;;;;;;;7.87;6.30;;;22.30;99.90;;;;;;5012827;28;20204;-81
2022/08/31 03:25:17;;;;;;;8.73;7.83;;;22.30;99.90;;;;;;5002372;28;21117;-81
2022/08/31 03:27:44;;;;;;;6.70;6.00;;;22.30;99.90;;;;;;5012042;28;20469;-81
2022/08/31 03:30:13;;;;;;;8.00;6.63;;;22.30;99.90;;;;;;5008725;28;20485;-81
2022/08/31 03:32:39;;;;;;;8.30;6.67;;;22.30;99.90;;;;;;5011985;28;20571;-81
2022/08/31 03:35:06;;;;;;;8.20;6.93;;;22.30;99.90;;;;;;5011091;28;21707;-78
2022/08/31 03:37:32;;;;;;;9.10;8.20;;;22.30;99.90;;;;;;5013405;28;20478;-81
2022/08/31 03:39:58;;;;;;;8.87;7.97;;;22.40;99.90;;;;;;5016263;28;20521;-80
2022/08/31 03:42:25;;;;;;;7.80;7.00;;;22.30;99.90;;;;;;5009770;28;20447;-80
2022/08/31 03:44:50;;;;;;;12.50;7.73;;;22.30;99.90;;;;;;5011027;28;20648;-80
2022/08/31 03:47:16;;;;;;;8.03;7.00;;;22.30;99.90;;;;;;5009860;28;20435;-81
2022/08/31 03:49:42;;;;;;;7.80;6.80;;;22.30;99.90;;;;;;5010143;28;20192;-80
2022/08/31 03:52:08;;;;;;;8.40;7.60;;;22.30;99.90;;;;;;5011267;28;20558;-80
2022/08/31 03:54:34;;;;;;;13.47;8.80;;;22.30;99.90;;;;;;5015225;28;20458;-79
2022/08/31 03:57:00;;;;;;;9.10;8.23;;;22.30;99.90;;;;;;5015098;28;20189;-80
2022/08/31 03:59:25;;;;;;;11.10;8.17;;;22.30;99.90;;;;;;5013246;28;20494;-80
2022/08/31 04:01:51;;;;;;;10.50;7.93;;;22.20;99.90;;;;;;5013410;28;20219;-77
2022/08/31 04:04:17;;;;;;;9.27;8.30;;;22.20;99.90;;;;;;5010537;28;20704;-77
2022/08/31 04:06:43;;;;;;;10.60;8.00;;;22.20;99.90;;;;;;5017245;28;20211;-77
2022/08/31 04:09:10;;;;;;;8.77;7.97;;;22.20;99.90;;;;;;5012136;28;20185;-79
2022/08/31 04:11:39;;;;;;;8.87;7.97;;;22.10;99.90;;;;;;5012971;28;20448;-79
2022/08/31 04:14:05;;;;;;;8.70;7.43;;;22.20;99.90;;;;;;5016174;28;20562;-80
2022/08/31 04:16:32;;;;;;;10.83;8.03;;;22.10;99.90;;;;;;5011668;28;20431;-81
2022/08/31 04:18:58;;;;;;;7.77;7.00;;;22.10;99.90;;;;;;5018745;28;20615;-79
2022/08/31 04:21:26;;;;;;;9.80;8.10;;;22.10;99.90;;;;;;5026024;28;20478;-79
2022/08/31 04:23:53;;;;;;;11.83;8.33;;;22.10;99.90;;;;;;5029644;28;20392;-79
2022/08/31 04:26:30;;;;;;;9.50;8.60;;;22.10;99.90;;;;;;5038330;28;20439;-79
2022/08/31 04:28:56;;;;;;;9.10;7.73;;;22.10;99.90;;;;;;5032651;28;20648;-79
2022/08/31 04:31:24;;;;;;;9.00;8.10;;;22.00;99.90;;;;;;5012547;28;20585;-79
2022/08/31 04:33:50;;;;;;;11.27;8.87;;;22.00;99.90;;;;;;5026959;28;20215;-80
2022/08/31 04:36:20;;;;;;;10.20;9.17;;;22.00;99.90;;;;;;5021953;28;20446;-80
2022/08/31 04:38:47;;;;;;;10.67;8.90;;;22.00;99.90;;;;;;5017785;28;20441;-80
2022/08/31 04:41:15;;;;;;;8.90;8.10;;;22.00;99.90;;;;;;5008321;28;21289;-80
2022/08/31 04:43:45;;;;;;;9.83;8.93;;;22.00;99.90;;;;;;5019434;28;20896;-80
2022/08/31 04:46:11;;;;;;;12.50;8.17;;;22.00;99.90;;;;;;5012545;28;20437;-80
2022/08/31 04:48:38;;;;;;;10.37;9.27;;;22.10;99.90;;;;;;5018300;28;20439;-81
2022/08/31 04:51:05;;;;;;;9.77;8.77;;;22.00;99.90;;;;;;5017732;28;20453;-81
2022/08/31 04:53:31;;;;;;;9.83;8.83;;;22.00;99.90;;;;;;5020087;28;20459;-80
2022/08/31 04:55:57;;;;;;;8.87;8.07;;;22.00;99.90;;;;;;5022753;28;20454;-80
2022/08/31 04:58:23;;;;;;;10.73;8.60;;;22.00;99.90;;;;;;5021542;28;20450;-80
2022/08/31 05:00:50;;;;;;;9.67;8.70;;;22.00;99.90;;;;;;5017010;28;20220;-71
2022/08/31 05:03:16;;;;;;;9.77;8.80;;;22.00;99.90;;;;;;5021070;28;20490;-70
2022/08/31 05:05:45;;;;;;;9.70;8.10;;;22.00;99.90;;;;;;5015898;28;21115;-70
2022/08/31 05:08:11;;;;;;;9.80;8.87;;;22.00;99.90;;;;;;5018951;28;20438;-71
2022/08/31 05:10:39;;;;;;;7.80;7.10;;;22.00;99.90;;;;;;5024180;28;20682;-70
2022/08/31 05:13:05;;;;;;;8.30;7.50;;;22.00;99.90;;;;;;5003125;28;20462;-70
2022/08/31 05:15:31;;;;;;;10.77;8.20;;;22.10;99.90;;;;;;5018000;28;20455;-70
2022/08/31 05:17:57;;;;;;;9.33;8.30;;;22.10;99.90;;;;;;5016821;28;20474;-70
2022/08/31 05:20:23;;;;;;;8.90;7.90;;;22.10;99.90;;;;;;5017283;28;20581;-71
2022/08/31 05:22:49;;;;;;;10.40;8.40;;;22.10;99.90;;;;;;5018308;28;20821;-72
2022/08/31 05:25:15;;;;;;;8.03;7.23;;;22.10;99.90;;;;;;5016946;28;20435;-71
2022/08/31 05:27:41;;;;;;;9.17;8.27;;;22.10;99.90;;;;;;5017592;28;20192;-71
2022/08/31 05:30:07;;;;;;;9.13;8.23;;;22.10;99.90;;;;;;5018442;28;20184;-71
2022/08/31 05:32:33;;;;;;;11.47;8.83;;;22.10;99.90;;;;;;5015931;28;20188;-71
2022/08/31 05:34:59;;;;;;;9.27;8.33;;;22.10;99.90;;;;;;5012614;28;20505;-71
2022/08/31 05:37:25;;;;;;;11.87;8.80;;;22.10;99.90;;;;;;5016372;28;20189;-71
2022/08/31 05:39:51;;;;;;;12.73;8.80;;;22.10;99.90;;;;;;5011648;28;20494;-71
2022/08/31 05:42:19;;;;;;;13.47;9.07;;;22.10;99.90;;;;;;5011558;28;20893;-70
2022/08/31 05:44:45;;;;;;;11.73;9.00;;;22.00;99.90;;;;;;5015231;28;20625;-70
2022/08/31 05:47:11;;;;;;;10.27;9.20;;;22.10;99.90;;;;;;5019247;28;20447;-72
2022/08/31 05:49:38;;;;;;;10.70;8.80;;;22.10;99.90;;;;;;5014859;28;20192;-70
2022/08/31 05:52:04;;;;;;;9.67;8.57;;;22.10;99.90;;;;;;5015813;28;20208;-71
2022/08/31 05:54:33;;;;;;;11.03;9.10;;;22.00;99.90;;;;;;5015704;28;20586;-72
2022/08/31 05:56:59;;;;;;;9.47;7.97;;;22.00;99.90;;;;;;5016687;28;20191;-69
2022/08/31 05:59:25;;;;;;;10.70;9.20;;;22.10;99.90;;;;;;5017262;28;20443;-70
2022/08/31 06:01:50;;;;;;;11.33;8.30;;;22.10;99.90;;;;;;5014428;28;20298;-70
2022/08/31 06:04:16;;;;;;;9.53;8.40;;;22.20;99.90;;;;;;5016414;28;20434;-71
2022/08/31 06:06:42;;;;;;;9.80;8.80;;;22.10;99.90;;;;;;5016218;28;20241;-70
2022/08/31 06:09:08;;;;;;;10.93;8.70;;;22.10;99.90;;;;;;5019377;28;20431;-72
2022/08/31 06:11:41;;;;;;;12.83;9.70;;;22.10;99.90;;;;;;5017355;28;20188;-72
2022/08/31 06:14:08;;;;;;;11.50;9.70;;;22.10;99.90;;;;;;5016432;28;20201;-71
2022/08/31 06:16:34;;;;;;;10.80;9.67;;;22.00;99.90;;;;;;4998341;28;20454;-71
2022/08/31 06:19:05;;;;;;;13.10;10.20;;;22.10;99.90;;;;;;5015677;28;20446;-71
2022/08/31 06:21:33;;;;;;;10.40;9.30;;;22.10;99.90;;;;;;5021444;28;20431;-71
2022/08/31 06:24:02;;;;;;;12.30;10.70;;;22.10;99.90;;;;;;5026029;28;20980;-71
2022/08/31 06:26:30;;;;;;;13.37;9.10;;;22.10;99.90;;;;;;4995204;28;20443;-69
2022/08/31 06:28:59;;;;;;;10.77;8.37;;;22.20;99.90;;;;;;5011611;28;20711;-69
2022/08/31 06:31:28;;;;;;;10.40;9.07;;;22.20;99.90;;;;;;5021045;28;20971;-71
2022/08/31 06:33:57;;;;;;;9.60;8.60;;;22.20;99.90;;;;;;5017520;28;20467;-69
2022/08/31 06:36:25;;;;;;;10.73;9.60;;;22.20;99.90;;;;;;5016012;28;20751;-69
2022/08/31 06:38:52;;;;;;;10.00;7.90;;;22.20;99.90;;;;;;5018431;28;20446;-69
2022/08/31 06:41:23;;;;;;;9.10;8.23;;;22.20;99.90;;;;;;5020211;28;20463;-69
2022/08/31 06:43:50;;;;;;;9.80;8.60;;;22.20;99.90;;;;;;5019212;28;21195;-70
2022/08/31 06:46:18;;;;;;;11.70;8.03;;;22.20;99.90;;;;;;5018898;28;20519;-69
2022/08/31 06:48:44;;;;;;;9.63;8.20;;;22.20;99.90;;;;;;5017585;28;20197;-69
2022/08/31 06:51:11;;;;;;;10.10;9.03;;;22.30;99.90;;;;;;5016517;28;20416;-69
2022/08/31 06:53:39;;;;;;;9.43;8.43;;;22.20;99.90;;;;;;5006768;28;20205;-70
2022/08/31 06:56:08;;;;;;;10.33;8.00;;;22.20;99.90;;;;;;5017381;28;20463;-70
2022/08/31 06:58:34;;;;;;;8.70;7.80;;;22.20;99.90;;;;;;5019794;28;20435;-70
2022/08/31 07:01:12;;;;;;;8.53;7.07;;;22.30;99.90;;;;;;5019168;28;20468;-70
2022/08/31 07:03:40;;;;;;;8.60;7.23;;;22.40;99.90;;;;;;5017469;28;20220;-70
2022/08/31 07:06:14;;;;;;;8.27;7.47;;;22.50;99.90;;;;;;5018497;28;20440;-70
2022/08/31 07:08:40;;;;;;;9.00;8.10;;;22.50;99.90;;;;;;5020400;28;20812;-70
2022/08/31 07:11:13;;;;;;;11.77;9.47;;;22.60;99.90;;;;;;5017227;28;21017;-70
2022/08/31 07:13:40;;;;;;;10.40;7.93;;;22.60;99.90;;;;;;5020382;28;20836;-70
2022/08/31 07:16:08;;;;;;;9.63;7.70;;;22.60;99.90;;;;;;5017992;28;20451;-70
2022/08/31 07:18:34;;;;;;;12.27;8.10;;;22.70;99.90;;;;;;5018589;28;20937;-70
2022/08/31 07:21:22;;;;;;;9.90;8.07;;;22.70;99.90;;;;;;5020882;28;21026;-70
2022/08/31 07:23:49;;;;;;;8.20;7.30;;;22.70;99.90;;;;;;5016382;28;20460;-70
2022/08/31 07:26:22;;;;;;;8.23;7.43;;;22.80;99.90;;;;;;5015423;28;20499;-71
2022/08/31 07:28:51;;;;;;;12.43;8.60;;;22.80;99.90;;;;;;5018196;28;20435;-70
2022/08/31 07:31:18;;;;;;;9.20;8.10;;;22.90;99.90;;;;;;5016252;28;20446;-70
2022/08/31 07:33:44;;;;;;;11.10;7.40;;;22.90;99.90;;;;;;5018762;28;20442;-71
2022/08/31 07:36:13;;;;;;;8.17;7.27;;;22.90;99.90;;;;;;5020108;28;20432;-71
2022/08/31 07:42:25;;;;;;;9.40;8.40;;;23.00;99.90;;;;;;5018850;28;20468;-71
2022/08/31 07:44:22;;;;;;;10.30;8.80;;;23.00;99.90;;;;;;5016378;28;20451;-71
2022/08/31 07:46:48;;;;;;;9.80;8.77;;;23.00;99.90;;;;;;5017009;28;20443;-70
2022/08/31 07:49:15;;;;;;;9.57;8.67;;;23.00;99.90;;;;;;5014687;28;20526;-68
2022/08/31 07:51:45;;;;;;;10.97;9.77;;;23.10;99.90;;;;;;5012414;28;20439;-67
2022/08/31 07:54:12;;;;;;;12.73;8.93;;;23.10;99.90;;;;;;5016512;28;20817;-67
2022/08/31 07:56:41;;;;;;;11.60;9.10;;;23.20;99.90;;;;;;5016176;28;20558;-67
2022/08/31 07:59:08;;;;;;;11.90;9.60;;;23.20;99.90;;;;;;5015677;28;20471;-67
2022/08/31 08:01:36;;;;;;;9.40;8.50;;;23.30;99.90;;;;;;5011709;28;22196;-67
2022/08/31 08:04:02;;;;;;;10.93;9.37;;;23.30;99.90;;;;;;5013542;28;20565;-68
2022/08/31 08:06:28;;;;;;;11.63;9.43;;;23.30;99.90;;;;;;5012458;28;20864;-68
2022/08/31 08:09:02;;;;;;;10.60;9.60;;;23.40;99.90;;;;;;5012675;28;20455;-68
2022/08/31 08:11:27;;;;;;;10.13;9.10;;;23.40;99.90;;;;;;4998238;28;20503;-73
2022/08/31 08:13:53;;;;;;;14.83;13.33;;;23.40;99.90;;;;;;5012609;28;20550;-73
2022/08/31 08:16:19;;;;;;;12.77;10.43;;;23.40;99.90;;;;;;5008862;28;20323;-74
2022/08/31 08:18:44;;;;;;;12.90;10.50;;;23.40;99.90;;;;;;5017296;28;20200;-74
2022/08/31 08:21:10;;;;;;;12.57;11.23;;;23.40;99.90;;;;;;5015546;28;20814;-74
2022/08/31 08:23:35;;;;;;;10.20;9.20;;;23.40;99.90;;;;;;5014794;28;20208;-74
2022/08/31 08:26:07;;;;;;;12.47;10.33;;;23.40;99.90;;;;;;5013199;28;20681;-71
2022/08/31 08:28:33;;;;;;;11.00;9.90;;;23.40;99.90;;;;;;5008780;28;20184;-72
2022/08/31 08:31:00;;;;;;;11.00;8.43;;;23.50;99.90;;;;;;5010916;28;20881;-72
2022/08/31 08:33:29;;;;;;;10.73;9.63;;;23.60;99.90;;;;;;5010746;28;20893;-71
2022/08/31 08:35:58;;;;;;;14.00;10.20;;;23.60;99.90;;;;;;5010023;28;20871;-71
2022/08/31 08:38:24;;;;;;;10.40;9.40;;;23.60;99.90;;;;;;5011170;28;20446;-70
2022/08/31 08:40:50;;;;;;;11.77;10.27;;;23.70;99.90;;;;;;5011509;28;20466;-71
2022/08/31 08:43:21;;;;;;;11.10;9.90;;;23.70;99.90;;;;;;5009638;28;20872;-71
2022/08/31 08:45:52;;;;;;;11.77;10.57;;;23.80;99.90;;;;;;5007641;28;21188;-71
2022/08/31 08:48:23;;;;;;;11.73;10.60;;;23.80;99.90;;;;;;5019692;28;20475;-70
2022/08/31 08:50:51;;;;;;;13.50;10.60;;;23.90;99.90;;;;;;5021977;28;20444;-70
2022/08/31 08:53:22;;;;;;;12.03;10.80;;;23.90;99.90;;;;;;5008671;28;20462;-71
2022/08/31 08:55:48;;;;;;;12.53;10.17;;;24.00;99.90;;;;;;5008373;28;20447;-73
2022/08/31 08:58:17;;;;;;;10.63;9.63;;;24.00;99.90;;;;;;4993874;28;20439;-74
2022/08/31 09:00:49;;;;;;;10.27;9.30;;;24.00;99.90;;;;;;5012318;28;20471;-76
2022/08/31 09:03:21;;;;;;;10.40;8.77;;;24.10;99.90;;;;;;5008850;28;20459;-71
2022/08/31 09:06:08;;;;;;;9.83;8.57;;;24.00;99.90;;;;;;5009757;28;20475;-73
2022/08/31 09:08:57;;;;;;;9.40;8.23;;;24.10;99.90;;;;;;5011018;28;20521;-74
2022/08/31 09:11:36;;;;;;;8.80;7.90;;;24.00;99.90;;;;;;5011299;28;20431;-76
2022/08/31 09:14:35;;;;;;;8.83;7.93;;;24.00;99.90;;;;;;5006054;28;20917;-73
2022/08/31 09:17:16;;;;;;;10.50;9.57;;;24.00;99.90;;;;;;5017011;28;20854;-74
2022/08/31 09:20:04;;;;;;;11.97;9.13;;;24.00;99.90;;;;;;5017642;28;20459;-76
2022/08/31 09:22:33;;;;;;;9.90;8.90;;;23.90;99.90;;;;;;5017190;28;20427;-76
2022/08/31 09:24:59;;;;;;;9.00;8.20;;;23.90;99.90;;;;;;5014921;28;20428;-73
2022/08/31 09:27:45;;;;;;;11.37;9.20;;;23.90;99.90;;;;;;5013614;28;20808;-73
2022/08/31 09:30:16;;;;;;;11.00;9.90;;;23.90;99.90;;;;;;5015748;28;20975;-73
2022/08/31 09:32:54;;;;;;;12.20;11.00;;;23.90;99.90;;;;;;5013558;28;20820;-77
2022/08/31 09:35:22;;;;;;;12.93;11.00;;;23.80;99.90;;;;;;4995403;28;20439;-74
2022/08/31 09:38:02;;;;;;;13.43;12.23;;;23.70;99.90;;;;;;5010742;28;21855;-75
2022/08/31 09:40:37;;;;;;;11.97;10.77;;;23.70;99.90;;;;;;5012070;28;20911;-73
2022/08/31 09:43:22;;;;;;;11.80;10.43;;;23.60;99.90;;;;;;5016883;28;20890;-74
2022/08/31 09:45:53;;;;;;;10.33;8.20;;;23.40;99.90;;;;;;5017556;28;21226;-72
2022/08/31 09:48:42;;;;;;;10.40;9.50;;;23.40;99.90;;;;;;5015434;28;20518;-73
2022/08/31 09:51:18;;;;;;;11.30;10.20;;;23.30;99.90;;;;;;5020044;28;20478;-75
2022/08/31 09:56:28;;;;;;;11.50;9.23;;;23.10;99.90;;;;;;5016127;28;20445;-74
2022/08/31 09:59:00;;;;;;;12.93;10.50;;;23.10;99.90;;;;;;5019405;28;20443;-74
2022/08/31 10:01:25;;;;;;;9.50;8.60;;;23.00;99.90;;;;;;5017880;28;20488;-73
2022/08/31 10:04:24;;;;;;;10.50;9.23;;;23.00;99.90;;;;;;5021001;28;21063;-74
2022/08/31 10:07:15;;;;;;;7.53;6.73;;;22.90;99.90;;;;;;5015455;28;20181;-72
2022/08/31 10:10:15;;;;;;;9.60;8.70;;;22.80;99.90;;;;;;5016319;28;20838;-73
2022/08/31 10:12:53;;;;;;;14.10;7.93;;;22.70;99.90;;;;;;4970711;28;20846;-73
2022/08/31 10:15:34;;;;;;;11.67;8.30;;;22.60;99.90;;;;;;5017047;28;20948;-74
2022/08/31 10:18:12;;;;;;;8.27;7.47;;;22.60;99.90;;;;;;5016683;28;20446;-74
2022/08/31 10:20:55;;;;;;;8.73;7.93;;;22.60;99.90;;;;;;5016058;28;20541;-75
2022/08/31 10:23:30;;;;;;;11.67;9.20;;;22.60;99.90;;;;;;5014872;28;20909;-74
2022/08/31 10:26:04;;;;;;;10.60;9.13;;;22.60;99.90;;;;;;5014165;28;20553;-74
2022/08/31 10:28:52;;;;;;;10.40;8.23;;;22.50;99.90;;;;;;5014081;28;20915;-73
2022/08/31 10:31:28;;;;;;;9.40;8.50;;;22.50;99.90;;;;;;5013995;28;20444;-73
2022/08/31 10:36:47;;;;;;;10.20;9.07;;;22.50;99.90;;;;;;5015799;28;20618;-72
2022/08/31 10:39:30;;;;;;;16.57;8.80;;;22.60;99.90;;;;;;5014981;28;20435;-71
2022/08/31 10:41:57;;;;;;;11.63;8.87;;;22.60;99.90;;;;;;5015654;28;20443;-72
2022/08/31 10:44:32;;;;;;;9.40;8.50;;;22.60;99.90;;;;;;5014904;28;20442;-72
2022/08/31 10:47:01;;;;;;;12.73;9.57;;;22.60;99.90;;;;;;5019167;28;20434;-71
2022/08/31 10:49:27;;;;;;;9.67;8.50;;;22.70;99.90;;;;;;4996648;28;20431;-72
2022/08/31 10:52:20;;;;;;;8.63;7.80;;;22.80;99.90;;;;;;5017529;28;20521;-72
2022/08/31 10:55:05;;;;;;;11.53;8.80;;;22.80;99.90;;;;;;5015377;28;20509;-72
2022/08/31 10:57:53;;;;;;;11.13;9.37;;;22.80;99.90;;;;;;4989529;28;20808;-72
2022/08/31 11:03:31;;;;;;;8.60;7.70;;;22.90;99.90;;;;;;5013285;28;20465;-72
2022/08/31 11:06:19;;;;;;;8.70;7.80;;;22.90;99.90;;;;;;5013118;28;21553;-72
2022/08/31 11:09:20;;;;;;;9.00;8.17;;;22.90;99.90;;;;;;5010364;28;20466;-72
2022/08/31 11:11:50;;;;;;;8.77;7.97;;;22.90;99.90;;;;;;5013320;28;20986;-73
2022/08/31 11:14:44;;;;;;;9.23;8.33;;;22.90;99.90;;;;;;5014271;28;20457;-72
2022/08/31 11:17:28;;;;;;;10.10;9.10;;;22.90;99.90;;;;;;5013608;28;20440;-72
2022/08/31 11:20:31;;;;;;;9.50;8.30;;;22.90;99.90;;;;;;5019926;28;20523;-71
2022/08/31 11:23:19;;;;;;;9.90;8.90;;;23.00;99.90;;;;;;5015504;28;20517;-71
2022/08/31 11:26:24;;;;;;;9.97;8.97;;;23.00;99.90;;;;;;5012872;28;20443;-71
2022/08/31 11:29:17;;;;;;;10.30;9.30;;;23.10;99.90;;;;;;5014037;28;20438;-71
2022/08/31 11:31:43;;;;;;;10.03;9.03;;;23.10;99.90;;;;;;5015817;28;20868;-73
2022/08/31 11:34:23;;;;;;;13.73;10.00;;;23.10;99.90;;;;;;5018330;28;20558;-73
2022/08/31 11:36:58;;;;;;;8.53;7.63;;;23.10;99.90;;;;;;5013849;28;20467;-75
2022/08/31 11:39:34;;;;;;;9.90;8.90;;;23.00;99.90;;;;;;5014195;28;21106;-75
2022/08/31 11:42:13;;;;;;;9.33;8.53;;;23.10;99.90;;;;;;5017802;28;20471;-75
2022/08/31 11:44:40;;;;;;;10.60;9.00;;;23.00;99.90;;;;;;5011992;28;20463;-75
2022/08/31 11:47:33;;;;;;;10.13;9.00;;;23.00;99.90;;;;;;5018210;28;20451;-75
2022/08/31 11:50:03;;;;;;;16.43;9.37;;;23.00;99.90;;;;;;5017891;28;20546;-75
2022/08/31 11:52:47;;;;;;;10.20;8.93;;;23.00;99.90;;;;;;5016397;28;21015;-74
2022/08/31 11:55:46;;;;;;;10.20;9.20;;;23.00;99.90;;;;;;5014056;28;20431;-75
2022/08/31 11:58:20;;;;;;;10.57;9.47;;;22.90;99.90;;;;;;5014250;28;20451;-78
2022/08/31 12:00:57;;;;;;;10.40;9.43;;;22.90;99.90;;;;;;5015784;28;20558;-77
2022/08/31 12:03:31;;;;;;;10.50;9.50;;;23.00;99.90;;;;;;5008950;28;20463;-77
2022/08/31 12:05:57;;;;;;;11.90;9.33;;;23.00;99.90;;;;;;5015776;28;20464;-74
2022/08/31 12:08:30;;;;;;;11.30;10.10;;;23.00;99.90;;;;;;5017686;28;20463;-73
2022/08/31 12:11:16;;;;;;;11.90;10.67;;;23.00;99.90;;;;;;5017039;28;20439;-76
2022/08/31 12:13:48;;;;;;;11.93;10.60;;;23.00;99.90;;;;;;5018115;28;20450;-77
2022/08/31 12:16:14;;;;;;;11.40;9.57;;;23.10;99.90;;;;;;5018048;28;20443;-78
2022/08/31 12:25:26;;;;;;;11.50;9.90;;;23.30;99.90;;;;;;5017511;28;20990;-73
2022/08/31 12:28:24;;;;;;;13.23;11.10;;;23.40;99.90;;;;;;5009094;28;20443;-74
2022/08/31 12:30:53;;;;;;;11.97;10.90;;;23.40;99.90;;;;;;5015807;28;20984;-76
2022/08/31 12:33:24;;;;;;;12.03;9.53;;;23.50;99.90;;;;;;5017013;28;20479;-77
2022/08/31 12:36:14;;;;;;;19.63;11.07;;;23.50;99.90;;;;;;5019166;28;20538;-75
2022/08/31 12:38:40;;;;;;;12.00;10.90;;;23.60;99.90;;;;;;5019789;28;20453;-76
2022/08/31 12:41:09;;;;;;;17.10;10.80;;;23.70;99.90;;;;;;5019820;28;21020;-77
2022/08/31 12:43:47;;;;;;;10.33;9.43;;;23.70;99.90;;;;;;5021230;28;20512;-80
2022/08/31 12:46:47;;;;;;;11.77;10.57;;;23.80;99.90;;;;;;5019936;28;20445;-80
2022/08/31 12:49:20;;;;;;;12.63;9.43;;;23.90;99.90;;;;;;5021666;28;20443;-76
2022/08/31 12:51:51;;;;;;;11.10;10.00;;;24.00;99.90;;;;;;5021787;28;20525;-78
2022/08/31 12:54:52;;;;;;;11.77;10.50;;;24.00;99.90;;;;;;5009389;28;21025;-72
2022/08/31 12:57:36;;;;;;;11.10;10.00;;;24.00;99.90;;;;;;4993673;28;20443;-74
2022/08/31 13:00:19;;;;;;;18.67;14.77;;;24.00;99.90;;;;;;5016296;28;20471;-74
2022/08/31 13:02:47;;;;;;;12.17;10.67;;;24.10;99.90;;;;;;5015328;28;20614;-73
2022/08/31 13:05:20;;;;;;;10.13;9.13;;;24.20;99.90;;;;;;5016416;28;21376;-74
2022/08/31 13:07:46;;;;;;;10.50;9.50;;;24.30;99.90;;;;;;5017429;28;20435;-73
2022/08/31 13:10:17;;;;;;;11.80;10.60;;;24.30;99.90;;;;;;5016357;28;20440;-75
2022/08/31 13:12:49;;;;;;;11.27;10.17;;;24.30;99.90;;;;;;5016802;28;20451;-74
2022/08/31 13:15:25;;;;;;;9.53;8.60;;;24.30;99.90;;;;;;5010663;28;20443;-73
2022/08/31 13:17:51;;;;;;;9.00;8.13;;;24.30;99.90;;;;;;5019974;28;20443;-73
2022/08/31 13:20:20;;;;;;;9.87;8.90;;;24.20;99.90;;;;;;5016590;28;20470;-75